createdAt,value
2023-03-07T00:01:00.720Z,22.65
2023-03-07T00:03:28.188Z,21.52
2023-03-07T00:06:09.041Z,26.45
2023-03-07T00:08:36.790Z,22.73
2023-03-07T00:11:06.070Z,21.88
2023-03-07T00:13:34.475Z,21.70
2023-03-07T00:16:07.744Z,18.92
2023-03-07T00:18:35.303Z,22.33
2023-03-07T00:21:07.959Z,17.65
2023-03-07T00:23:36.491Z,18.02
2023-03-07T00:26:11.024Z,17.75
2023-03-07T00:28:38.389Z,18.75
2023-03-07T00:31:08.099Z,19.20
2023-03-07T00:33:35.655Z,20.67
2023-03-07T00:36:08.615Z,19.50
2023-03-07T00:38:35.832Z,17.65
2023-03-07T00:41:08.322Z,19.83
2023-03-07T00:43:35.745Z,21.02
2023-03-07T00:51:24.618Z,20.67
2023-03-07T00:53:52.695Z,24.33
2023-03-07T00:56:24.782Z,23.73
2023-03-07T00:58:52.632Z,22.60
2023-03-07T01:01:25.275Z,26.80
2023-03-07T01:03:56.203Z,26.85
2023-03-07T01:06:31.198Z,24.55
2023-03-07T01:09:00.959Z,24.30
2023-03-07T01:11:29.271Z,27.65
2023-03-07T01:14:00.590Z,42.90
2023-03-07T01:16:31.221Z,35.13
2023-03-07T01:19:01.128Z,24.88
2023-03-07T01:21:37.831Z,24.60
2023-03-07T01:24:06.515Z,26.00
2023-03-07T01:26:34.259Z,25.58
2023-03-07T01:29:04.171Z,23.90
2023-03-07T01:31:32.431Z,26.20
2023-03-07T01:34:01.128Z,16.40
2023-03-07T01:36:30.637Z,24.27
2023-03-07T01:39:02.659Z,26.60
2023-03-07T01:41:32.275Z,22.88
2023-03-07T01:44:05.386Z,30.13
2023-03-07T01:46:49.757Z,25.83
2023-03-07T01:49:24.605Z,20.98
2023-03-07T01:52:25.541Z,26.95
2023-03-07T01:54:58.413Z,24.92
2023-03-07T01:57:31.455Z,22.70
2023-03-07T02:10:52.492Z,16.38
2023-03-07T02:21:50.467Z,19.35
2023-03-07T02:34:03.042Z,16.00
2023-03-07T02:36:34.849Z,18.73
2023-03-07T02:39:06.927Z,19.38
2023-03-07T02:44:22.484Z,18.05
2023-03-07T02:46:49.339Z,17.42
2023-03-07T02:51:51.478Z,13.38
2023-03-07T02:54:18.239Z,14.50
2023-03-07T02:56:45.071Z,15.60
2023-03-07T03:01:52.502Z,16.75
2023-03-07T03:04:19.484Z,13.05
2023-03-07T03:06:47.042Z,12.48
2023-03-07T03:09:14.461Z,15.07
2023-03-07T03:11:41.863Z,17.33
2023-03-07T03:14:09.237Z,15.38
2023-03-07T03:16:36.192Z,15.75
2023-03-07T03:19:03.523Z,16.60
2023-03-07T03:21:30.312Z,16.35
2023-03-07T03:23:57.170Z,19.17
2023-03-07T03:29:17.049Z,17.90
2023-03-07T03:31:45.184Z,18.75
2023-03-07T03:34:12.579Z,20.08
2023-03-07T03:36:39.885Z,24.92
2023-03-07T03:39:11.015Z,20.55
2023-03-07T03:41:38.644Z,15.02
2023-03-07T03:44:05.681Z,19.30
2023-03-07T03:46:32.606Z,18.75
2023-03-07T03:48:59.421Z,17.88
2023-03-07T03:51:26.434Z,16.38
2023-03-07T03:53:54.784Z,16.00
2023-03-07T03:56:23.459Z,15.50
2023-03-07T03:58:53.835Z,17.52
2023-03-07T04:03:57.493Z,13.38
2023-03-07T04:06:27.503Z,17.38
2023-03-07T04:08:55.540Z,17.25
2023-03-07T04:11:24.178Z,17.95
2023-03-07T04:13:52.227Z,36.45
2023-03-07T04:16:19.913Z,22.30
2023-03-07T04:18:46.785Z,18.25
2023-03-07T04:21:14.131Z,17.45
2023-03-07T04:23:41.329Z,18.02
2023-03-07T04:26:10.432Z,16.60
2023-03-07T04:28:45.665Z,17.92
2023-03-07T04:31:18.611Z,19.73
2023-03-07T04:33:47.275Z,14.68
2023-03-07T04:36:16.324Z,17.95
2023-03-07T04:38:43.879Z,16.05
2023-03-07T04:41:22.923Z,19.45
2023-03-07T04:43:49.777Z,16.30
2023-03-07T04:46:18.550Z,14.90
2023-03-07T04:48:46.311Z,17.83
2023-03-07T04:51:13.538Z,15.68
2023-03-07T04:53:40.626Z,16.35
2023-03-07T04:56:08.844Z,16.58
2023-03-07T04:58:36.585Z,16.23
2023-03-07T05:01:05.510Z,16.33
2023-03-07T05:03:33.854Z,18.50
2023-03-07T05:09:06.421Z,23.73
2023-03-07T05:11:33.300Z,21.88
2023-03-07T05:14:00.514Z,25.98
2023-03-07T05:16:27.448Z,22.63
2023-03-07T05:18:54.316Z,26.02
2023-03-07T05:21:21.249Z,28.17
2023-03-07T05:23:48.085Z,35.92
2023-03-07T05:26:14.949Z,26.40
2023-03-07T05:28:42.160Z,25.88
2023-03-07T05:31:09.101Z,33.35
2023-03-07T05:33:36.436Z,46.05
2023-03-07T05:36:03.916Z,42.95
2023-03-07T05:38:30.783Z,38.33
2023-03-07T05:40:58.182Z,36.80
2023-03-07T05:43:24.995Z,33.33
2023-03-07T05:45:51.981Z,31.75
2023-03-07T05:48:19.206Z,29.48
2023-03-07T05:50:46.133Z,32.78
2023-03-07T05:53:12.956Z,36.78
2023-03-07T05:55:39.781Z,36.30
2023-03-07T05:58:06.661Z,34.95
2023-03-07T06:00:33.539Z,34.58
2023-03-07T06:03:05.134Z,34.75
2023-03-07T06:05:32.073Z,32.58
2023-03-07T06:07:59.341Z,28.55
2023-03-07T06:10:26.502Z,27.90
2023-03-07T06:12:54.440Z,32.83
2023-03-07T06:15:24.483Z,44.50
2023-03-07T06:17:52.907Z,36.45
2023-03-07T06:20:21.156Z,36.80
2023-03-07T06:22:48.509Z,34.00
2023-03-07T06:25:16.860Z,28.33
2023-03-07T06:27:43.730Z,26.88
2023-03-07T06:30:12.429Z,25.73
2023-03-07T06:32:39.320Z,26.50
2023-03-07T06:35:06.928Z,27.73
2023-03-07T06:37:34.194Z,25.00
2023-03-07T06:40:00.993Z,25.83
2023-03-07T06:42:27.885Z,22.25
2023-03-07T06:44:54.799Z,22.23
2023-03-07T06:47:21.716Z,24.77
2023-03-07T06:49:48.656Z,26.90
2023-03-07T06:52:15.897Z,26.63
2023-03-07T06:54:42.808Z,28.15
2023-03-07T06:57:09.611Z,31.15
2023-03-07T06:59:36.458Z,30.90
2023-03-07T07:02:04.802Z,27.05
2023-03-07T07:04:33.076Z,27.58
2023-03-07T07:07:00.351Z,33.40
2023-03-07T07:09:28.967Z,36.40
2023-03-07T07:11:55.897Z,31.63
2023-03-07T07:14:23.493Z,40.33
2023-03-07T07:16:50.877Z,36.13
2023-03-07T07:19:17.946Z,47.55
2023-03-07T07:21:44.763Z,54.00
2023-03-07T07:24:14.516Z,45.03
2023-03-07T07:26:41.827Z,43.88
2023-03-07T07:29:08.746Z,37.97
2023-03-07T07:31:35.613Z,38.13
2023-03-07T07:34:02.593Z,39.15
2023-03-07T07:36:29.948Z,45.05
2023-03-07T07:38:57.171Z,34.25
2023-03-07T07:41:24.443Z,36.53
2023-03-07T07:43:53.747Z,35.78
2023-03-07T07:46:20.674Z,28.20
2023-03-07T07:48:48.318Z,32.50
2023-03-07T07:51:15.544Z,31.27
2023-03-07T07:53:42.497Z,36.17
2023-03-07T07:56:09.392Z,32.72
2023-03-07T07:58:36.867Z,29.88
2023-03-07T08:01:21.587Z,32.85
2023-03-07T08:03:48.606Z,29.90
2023-03-07T08:06:20.661Z,27.77
2023-03-07T08:08:48.185Z,26.50
2023-03-07T08:11:16.105Z,29.45
2023-03-07T08:13:42.997Z,26.98
2023-03-07T08:16:18.457Z,35.33
2023-03-07T08:18:54.641Z,34.13
2023-03-07T08:21:21.715Z,25.80
2023-03-07T08:23:49.449Z,33.28
2023-03-07T08:26:17.628Z,27.70
2023-03-07T08:28:48.004Z,30.35
2023-03-07T08:31:18.023Z,29.23
2023-03-07T08:33:47.644Z,32.10
2023-03-07T08:36:15.613Z,39.42
2023-03-07T08:38:42.955Z,31.25
2023-03-07T08:41:10.452Z,33.47
2023-03-07T08:43:39.284Z,37.63
2023-03-07T08:46:07.002Z,31.38
2023-03-07T08:48:34.570Z,25.50
2023-03-07T08:51:07.365Z,34.97
2023-03-07T08:53:34.791Z,29.98
2023-03-07T08:56:05.553Z,31.23
2023-03-07T08:58:32.364Z,36.60
2023-03-07T09:00:59.579Z,37.63
2023-03-07T09:03:26.448Z,27.95
2023-03-07T09:05:53.269Z,30.42
2023-03-07T09:08:20.526Z,27.00
2023-03-07T09:10:47.869Z,27.42
2023-03-07T09:13:15.986Z,25.45
2023-03-07T09:15:44.721Z,28.10
2023-03-07T09:18:12.296Z,21.30
2023-03-07T09:20:39.494Z,18.98
2023-03-07T09:23:07.347Z,16.55
2023-03-07T09:25:34.261Z,16.05
2023-03-07T09:28:01.649Z,8.77
2023-03-07T09:30:28.967Z,6.82
2023-03-07T09:32:57.031Z,4.25
2023-03-07T09:35:24.410Z,3.08
2023-03-07T09:37:51.630Z,2.88
2023-03-07T09:40:23.754Z,1.80
2023-03-07T09:43:21.386Z,3.63
2023-03-07T09:45:54.749Z,2.78
2023-03-07T09:48:32.884Z,2.65
2023-03-07T09:51:18.156Z,1.60
2023-03-07T09:53:55.252Z,1.90
2023-03-07T09:56:29.931Z,2.65
2023-03-07T09:59:22.370Z,1.50
2023-03-07T10:01:56.927Z,2.10
2023-03-07T10:04:35.281Z,1.67
2023-03-07T10:07:04.126Z,1.75
2023-03-07T10:09:31.138Z,2.03
2023-03-07T10:11:58.413Z,3.17
2023-03-07T10:14:31.154Z,2.45
2023-03-07T10:17:14.055Z,2.08
2023-03-07T10:20:08.613Z,1.55
2023-03-07T10:22:44.513Z,4.47
2023-03-07T10:25:17.814Z,3.05
2023-03-07T10:27:47.953Z,4.05
2023-03-07T10:30:18.663Z,1.75
2023-03-07T10:32:48.637Z,3.85
2023-03-07T10:35:20.893Z,0.85
2023-03-07T10:38:08.585Z,1.63
2023-03-07T10:40:58.431Z,4.40
2023-03-07T10:43:30.036Z,2.60
2023-03-07T10:46:26.506Z,3.20
2023-03-07T10:49:10.212Z,1.73
2023-03-07T10:51:43.986Z,1.50
2023-03-07T10:54:16.281Z,2.58
2023-03-07T10:57:02.741Z,0.88
2023-03-07T10:59:30.148Z,1.00
2023-03-07T11:02:02.072Z,1.95
2023-03-07T11:04:42.351Z,1.80
2023-03-07T11:07:24.421Z,2.20
2023-03-07T11:09:51.186Z,2.70
2023-03-07T11:12:21.159Z,3.92
2023-03-07T11:14:51.724Z,5.22
2023-03-07T11:17:22.117Z,2.30
2023-03-07T11:19:53.465Z,1.55
2023-03-07T11:22:34.006Z,0.93
2023-03-07T11:25:13.614Z,1.33
2023-03-07T11:27:54.044Z,2.50
2023-03-07T11:30:46.786Z,0.98
2023-03-07T11:33:22.679Z,1.92
2023-03-07T11:36:18.633Z,4.88
2023-03-07T11:38:57.104Z,2.85
2023-03-07T11:41:29.646Z,1.00
2023-03-07T11:44:30.826Z,1.35
2023-03-07T11:47:28.444Z,1.45
2023-03-07T11:50:09.488Z,1.13
2023-03-07T11:52:55.196Z,2.15
2023-03-07T11:55:46.243Z,1.98
2023-03-07T11:58:41.544Z,2.20
2023-03-07T12:01:47.253Z,0.80
2023-03-07T12:04:54.485Z,1.65
2023-03-07T12:07:33.348Z,2.90
2023-03-07T12:10:13.779Z,2.55
2023-03-07T12:12:52.425Z,1.40
2023-03-07T12:15:19.330Z,2.22
2023-03-07T12:17:52.686Z,0.40
2023-03-07T12:20:35.134Z,1.38
2023-03-07T12:23:19.900Z,1.92
2023-03-07T12:25:51.410Z,3.13
2023-03-07T12:28:21.599Z,1.70
2023-03-07T12:31:00.883Z,1.17
2023-03-07T12:33:43.793Z,1.90
2023-03-07T12:36:20.316Z,0.85
2023-03-07T12:39:21.763Z,1.23
2023-03-07T12:42:01.240Z,1.20
2023-03-07T12:44:44.030Z,0.95
2023-03-07T12:47:22.257Z,2.17
2023-03-07T12:50:00.037Z,1.08
2023-03-07T12:52:42.312Z,0.90
2023-03-07T12:55:22.363Z,1.23
2023-03-07T12:58:04.204Z,2.17
2023-03-07T13:00:32.316Z,1.17
2023-03-07T13:03:06.557Z,1.45
2023-03-07T13:05:37.051Z,2.28
2023-03-07T13:08:06.856Z,1.80
2023-03-07T13:10:34.165Z,2.40
2023-03-07T13:13:01.075Z,2.17
2023-03-07T13:15:37.131Z,1.38
2023-03-07T13:18:24.628Z,2.65
2023-03-07T13:21:27.429Z,2.38
2023-03-07T13:24:33.186Z,2.55
2023-03-07T13:27:00.350Z,3.90
2023-03-07T13:30:04.974Z,1.73
2023-03-07T13:32:56.009Z,2.00
2023-03-07T13:35:29.189Z,1.92
2023-03-07T13:38:22.536Z,1.13
2023-03-07T13:40:53.395Z,1.98
2023-03-07T13:43:20.434Z,1.80
2023-03-07T13:45:47.841Z,1.30
2023-03-07T13:48:38.025Z,1.00
2023-03-07T13:51:09.063Z,2.10
2023-03-07T13:53:48.150Z,2.63
2023-03-07T13:56:20.139Z,2.60
2023-03-07T13:59:14.895Z,3.60
2023-03-07T14:02:04.250Z,1.90
2023-03-07T14:05:02.067Z,4.28
2023-03-07T14:07:39.958Z,1.85
2023-03-07T14:10:44.539Z,1.40
2023-03-07T14:13:17.299Z,1.75
2023-03-07T14:15:53.246Z,1.95
2023-03-07T14:18:38.695Z,1.88
2023-03-07T14:21:27.302Z,1.60
2023-03-07T14:24:23.380Z,1.67
2023-03-07T14:26:56.673Z,2.60
2023-03-07T14:29:26.047Z,1.77
2023-03-07T14:31:56.986Z,1.02
2023-03-07T14:34:32.909Z,1.50
2023-03-07T14:37:12.040Z,1.65
2023-03-07T14:39:59.206Z,1.60
2023-03-07T14:42:31.977Z,1.13
2023-03-07T14:45:13.413Z,1.20
2023-03-07T14:47:54.356Z,4.72
2023-03-07T14:50:25.607Z,3.05
2023-03-07T14:52:59.685Z,3.53
2023-03-07T14:55:38.549Z,2.67
2023-03-07T14:58:06.323Z,3.75
2023-03-07T15:00:35.789Z,2.97
2023-03-07T15:03:08.109Z,1.15
2023-03-07T15:05:55.139Z,2.08
2023-03-07T15:08:32.044Z,2.47
2023-03-07T15:11:38.072Z,2.00
2023-03-07T15:14:07.747Z,2.17
2023-03-07T15:16:41.465Z,2.00
2023-03-07T15:19:15.417Z,1.13
2023-03-07T15:21:55.856Z,3.88
2023-03-07T15:24:33.379Z,1.23
2023-03-07T15:27:01.504Z,1.92
2023-03-07T15:29:30.611Z,3.28
2023-03-07T15:32:02.643Z,1.48
2023-03-07T15:34:35.329Z,3.75
2023-03-07T15:37:25.111Z,5.20
2023-03-07T15:40:00.658Z,3.38
2023-03-07T15:42:28.242Z,2.00
2023-03-07T15:44:57.849Z,6.32
2023-03-07T15:47:26.044Z,6.50
2023-03-07T15:49:56.263Z,3.38
2023-03-07T15:52:28.878Z,3.38
2023-03-07T15:54:57.810Z,3.00
2023-03-07T15:57:30.627Z,1.83
2023-03-07T16:00:02.046Z,1.77
2023-03-07T16:02:32.200Z,2.40
2023-03-07T16:05:02.022Z,2.47
2023-03-07T16:07:29.376Z,2.10
2023-03-07T16:09:56.340Z,3.53
2023-03-07T16:12:25.264Z,4.18
2023-03-07T16:14:54.638Z,1.75
2023-03-07T16:17:34.720Z,3.15
2023-03-07T16:20:01.717Z,2.00
2023-03-07T16:22:30.877Z,4.32
2023-03-07T16:25:01.079Z,2.90
2023-03-07T16:27:28.603Z,6.18
2023-03-07T16:29:55.344Z,3.67
2023-03-07T16:32:23.173Z,4.15
2023-03-07T16:34:50.564Z,3.45
2023-03-07T16:37:17.534Z,4.38
2023-03-07T16:39:44.398Z,2.47
2023-03-07T16:42:20.741Z,2.35
2023-03-07T16:44:49.436Z,3.80
2023-03-07T16:47:18.273Z,4.50
2023-03-07T16:49:49.008Z,3.97
2023-03-07T16:52:15.843Z,4.20
2023-03-07T16:54:42.997Z,4.70
2023-03-07T16:57:17.733Z,4.13
2023-03-07T16:59:47.147Z,2.70
2023-03-07T17:02:19.037Z,4.55
2023-03-07T17:04:45.871Z,3.30
2023-03-07T17:07:21.916Z,4.63
2023-03-07T17:09:51.845Z,5.65
2023-03-07T17:12:25.142Z,3.08
2023-03-07T17:14:52.400Z,3.13
2023-03-07T17:17:33.362Z,3.05
2023-03-07T17:20:00.496Z,5.25
2023-03-07T17:22:27.918Z,3.72
2023-03-07T17:24:54.702Z,5.40
2023-03-07T17:27:21.995Z,3.08
2023-03-07T17:29:52.444Z,3.13
2023-03-07T17:32:19.410Z,3.63
2023-03-07T17:34:49.187Z,2.45
2023-03-07T17:37:16.106Z,4.20
2023-03-07T17:39:43.749Z,4.32
2023-03-07T17:42:13.194Z,4.35
2023-03-07T17:44:40.472Z,14.65
2023-03-07T17:47:07.864Z,3.70
2023-03-07T17:49:36.966Z,4.72
2023-03-07T17:52:05.200Z,2.38
2023-03-07T17:54:32.790Z,3.80
2023-03-07T17:57:03.165Z,2.10
2023-03-07T17:59:32.532Z,2.72
2023-03-07T18:01:59.667Z,2.80
2023-03-07T18:04:35.772Z,3.40
2023-03-07T18:07:03.180Z,2.85
2023-03-07T18:09:30.731Z,4.13
2023-03-07T18:11:58.096Z,2.55
2023-03-07T18:14:25.802Z,4.38
2023-03-07T18:16:53.215Z,1.95
2023-03-07T18:19:26.647Z,3.17
2023-03-07T18:21:54.481Z,2.55
2023-03-07T18:24:26.926Z,5.43
2023-03-07T18:26:56.179Z,2.05
2023-03-07T18:29:24.027Z,3.45
2023-03-07T18:31:51.124Z,8.35
2023-03-07T18:34:18.379Z,3.05
2023-03-07T18:36:47.850Z,2.08
2023-03-07T18:39:15.440Z,3.35
2023-03-07T18:41:42.349Z,2.25
2023-03-07T18:44:09.303Z,2.42
2023-03-07T18:46:37.292Z,3.45
2023-03-07T18:49:04.629Z,3.30
2023-03-07T18:51:32.277Z,2.72
2023-03-07T18:54:01.583Z,4.55
2023-03-07T18:56:29.225Z,4.45
2023-03-07T18:59:01.431Z,3.80
2023-03-07T19:01:31.472Z,2.00
2023-03-07T19:04:03.742Z,5.28
2023-03-07T19:06:33.557Z,5.07
2023-03-07T19:09:00.434Z,5.35
2023-03-07T19:11:27.315Z,4.53
2023-03-07T19:13:54.253Z,4.72
2023-03-07T19:16:24.320Z,4.32
2023-03-07T19:18:51.666Z,5.45
2023-03-07T19:21:24.126Z,4.68
2023-03-07T19:23:52.164Z,3.38
2023-03-07T19:26:21.190Z,6.60
2023-03-07T19:28:50.428Z,5.63
2023-03-07T19:31:19.873Z,4.07
2023-03-07T19:33:48.490Z,3.85
2023-03-07T19:36:26.801Z,4.20
2023-03-07T19:38:56.468Z,9.32
2023-03-07T19:41:25.417Z,6.78
2023-03-07T19:43:53.059Z,3.58
2023-03-07T19:46:21.174Z,2.40
2023-03-07T19:48:48.845Z,4.20
2023-03-07T19:51:18.485Z,3.92
2023-03-07T19:53:46.808Z,4.00
2023-03-07T19:56:27.480Z,3.28
2023-03-07T19:58:55.678Z,3.05
2023-03-07T20:01:24.172Z,2.53
2023-03-07T20:03:51.741Z,2.72
2023-03-07T20:06:21.001Z,1.40
2023-03-07T20:08:48.684Z,3.47
2023-03-07T20:11:18.158Z,7.65
2023-03-07T20:13:46.803Z,1.33
2023-03-07T20:16:14.970Z,1.70
2023-03-07T20:18:42.488Z,3.33
2023-03-07T20:21:14.255Z,2.17
2023-03-07T20:23:44.269Z,2.90
2023-03-07T20:26:15.205Z,4.45
2023-03-07T20:28:42.532Z,3.22
2023-03-07T20:31:10.770Z,1.92
2023-03-07T20:33:39.456Z,3.53
2023-03-07T20:36:10.012Z,3.67
2023-03-07T20:38:37.731Z,2.90
2023-03-07T20:41:12.084Z,3.63
2023-03-07T20:43:39.697Z,3.15
2023-03-07T20:46:12.217Z,3.78
2023-03-07T20:48:40.835Z,3.03
2023-03-07T20:51:18.533Z,3.78
2023-03-07T20:53:57.481Z,3.35
2023-03-07T20:56:27.676Z,3.20
2023-03-07T20:58:55.976Z,2.03
2023-03-07T21:01:25.299Z,2.10
2023-03-07T21:03:55.746Z,4.55
2023-03-07T21:06:23.012Z,2.17
2023-03-07T21:08:49.908Z,2.00
2023-03-07T21:11:20.851Z,2.28
2023-03-07T21:13:49.301Z,2.70
2023-03-07T21:16:21.512Z,2.03
2023-03-07T21:18:49.023Z,1.58
2023-03-07T21:21:18.722Z,2.15
2023-03-07T21:23:49.634Z,0.93
2023-03-07T21:26:19.631Z,1.88
2023-03-07T21:28:47.911Z,2.03
2023-03-07T21:31:17.765Z,1.67
2023-03-07T21:33:47.467Z,2.85
2023-03-07T21:36:16.866Z,1.50
2023-03-07T21:38:45.545Z,0.98
2023-03-07T21:41:14.062Z,1.48
2023-03-07T21:43:41.475Z,2.35
2023-03-07T21:46:11.891Z,3.28
2023-03-07T21:48:39.208Z,1.33
2023-03-07T21:51:06.464Z,2.00
2023-03-07T21:53:34.508Z,1.70
2023-03-07T21:56:13.037Z,2.42
2023-03-07T21:58:40.724Z,1.55
2023-03-07T22:01:19.988Z,0.80
2023-03-07T22:03:47.149Z,1.42
2023-03-07T22:06:16.255Z,2.75
2023-03-07T22:08:43.252Z,1.08
2023-03-07T22:11:12.616Z,2.50
2023-03-07T22:13:40.830Z,1.00
2023-03-07T22:16:11.346Z,1.80
2023-03-07T22:18:38.438Z,1.52
2023-03-07T22:21:10.759Z,1.17
2023-03-07T22:23:37.687Z,2.90
2023-03-07T22:26:09.698Z,3.17
2023-03-07T22:28:36.955Z,2.50
2023-03-07T22:31:09.643Z,2.65
2023-03-07T22:33:36.630Z,2.67
2023-03-07T22:36:06.368Z,3.92
2023-03-07T22:38:33.261Z,1.95
2023-03-07T22:41:09.885Z,1.65
2023-03-07T22:43:37.284Z,0.82
2023-03-07T22:46:05.363Z,1.63
2023-03-07T22:48:32.734Z,1.67
2023-03-07T22:50:59.913Z,1.15
2023-03-07T22:53:31.290Z,1.73
2023-03-07T22:55:59.522Z,1.30
2023-03-07T22:58:27.368Z,1.88
2023-03-07T23:00:54.511Z,3.65
2023-03-07T23:03:21.504Z,2.40
2023-03-07T23:05:48.455Z,1.75
2023-03-07T23:08:16.456Z,0.93
2023-03-07T23:10:43.785Z,1.92
2023-03-07T23:13:10.743Z,2.53
2023-03-07T23:15:41.189Z,2.33
2023-03-07T23:18:08.313Z,2.53
2023-03-07T23:20:41.719Z,3.92
2023-03-07T23:23:09.001Z,1.35
2023-03-07T23:25:42.850Z,1.27
2023-03-07T23:28:10.341Z,2.60
2023-03-07T23:30:38.933Z,1.85
2023-03-07T23:33:06.884Z,3.97
2023-03-07T23:35:35.480Z,1.95
2023-03-07T23:38:03.113Z,1.38
2023-03-07T23:40:30.350Z,2.05
2023-03-07T23:42:58.995Z,1.00
2023-03-07T23:45:26.313Z,0.73
2023-03-07T23:47:53.603Z,1.50
2023-03-07T23:50:21.310Z,0.85
2023-03-07T23:52:48.861Z,1.98
2023-03-07T23:55:16.069Z,2.53
2023-03-07T23:57:43.476Z,3.47
